HEZ weather

Tlalnepantla de Baz Heliport
Tlalnepantla de Baz, México (state), Mexico

Public forecast

Using degrees Celsius for public forecast. Weather courtesy of forecast.io.

Closest aviation weather report (METAR) to Tlalnepantla de Baz Heliport

Closest report is Licenciado Benito Juarez International Airport, 9.3 nm (17.3 km) SE. Retrieved 2020/01/23 06:45 UTC (36 minutes ago):

MMMX 230645Z 26004KT 8SM SKC 13/06 A3026 NOSIG RMK HZY

Closest aviation forecast (TAF) to Tlalnepantla de Baz Heliport

Closest forecast is Licenciado Benito Juarez International Airport, 9.3 nm (17.3 km) SE. Retrieved 2020/01/23 06:09 UTC (1 hour ago):

TAF MMMX 230503Z 2306/2412 10007KT P6SM SCT080 TX23/2321Z TN08/2312Z FM231200 25005KT 5SM HZ SCT070 FM231800 24008KT 6SM HZ SCT020 SCT080 PROB40 2323/2403 5SM -RA BKN020 OVC080 FM240700 02004KT P6SM SCT020 BKN080 BKN200